createdAt,value
2018-08-11T00:00:59.505Z,0.00
2018-08-11T00:01:59.519Z,0.00
2018-08-11T00:02:59.502Z,0.00
2018-08-11T00:03:59.504Z,0.00
2018-08-11T00:04:59.520Z,0.00
2018-08-11T00:05:59.513Z,0.00
2018-08-11T00:06:59.514Z,0.00
2018-08-11T00:07:59.526Z,0.00
2018-08-11T00:08:59.528Z,0.00
2018-08-11T00:09:59.531Z,0.00
2018-08-11T00:10:59.527Z,0.00
2018-08-11T00:11:59.533Z,0.00
2018-08-11T00:12:59.541Z,0.00
2018-08-11T00:13:59.543Z,0.00
2018-08-11T00:14:59.544Z,0.00
2018-08-11T00:15:59.539Z,0.00
2018-08-11T00:16:59.553Z,0.00
2018-08-11T00:17:59.544Z,0.00
2018-08-11T00:18:59.553Z,0.00
2018-08-11T00:19:59.569Z,0.00
2018-08-11T00:20:59.555Z,0.00
2018-08-11T00:21:59.559Z,0.00
2018-08-11T00:23:00.198Z,0.00
2018-08-11T00:23:59.560Z,0.00
2018-08-11T00:24:59.562Z,0.00
2018-08-11T00:25:59.575Z,0.00
2018-08-11T00:26:59.583Z,0.00
2018-08-11T00:27:59.620Z,0.00
2018-08-11T00:28:59.580Z,0.00
2018-08-11T00:29:59.589Z,0.00
2018-08-11T00:30:59.577Z,0.00
2018-08-11T00:31:59.580Z,0.00
2018-08-11T00:33:00.203Z,0.00
2018-08-11T00:33:59.590Z,0.00
2018-08-11T00:34:59.593Z,0.00
2018-08-11T00:35:59.602Z,0.00
2018-08-11T00:36:59.600Z,0.00
2018-08-11T00:37:59.603Z,0.00
2018-08-11T00:38:59.610Z,0.00
2018-08-11T00:39:59.619Z,0.00
2018-08-11T00:40:59.635Z,0.00
2018-08-11T00:41:59.620Z,0.00
2018-08-11T00:42:59.612Z,0.00
2018-08-11T00:43:59.631Z,0.00
2018-08-11T00:44:59.621Z,0.00
2018-08-11T00:46:00.215Z,0.00
2018-08-11T00:46:59.614Z,0.00
2018-08-11T00:47:59.627Z,0.00
2018-08-11T00:48:59.695Z,0.00
2018-08-11T00:49:59.638Z,0.00
2018-08-11T00:50:59.648Z,0.00
2018-08-11T00:51:59.649Z,0.00
2018-08-11T00:52:59.648Z,0.00
2018-08-11T00:53:59.654Z,0.00
2018-08-11T00:54:59.651Z,0.00
2018-08-11T00:55:59.655Z,0.00
2018-08-11T00:56:59.653Z,0.00
2018-08-11T00:57:59.659Z,0.00
2018-08-11T00:58:59.730Z,0.00
2018-08-11T00:59:59.669Z,0.00
2018-08-11T01:00:59.673Z,0.00
2018-08-11T01:01:59.670Z,0.00
2018-08-11T01:02:59.673Z,0.00
2018-08-11T01:03:59.673Z,0.00
2018-08-11T01:04:59.681Z,0.00
2018-08-11T01:05:59.684Z,0.00
2018-08-11T01:06:59.679Z,0.00
2018-08-11T01:07:59.691Z,0.00
2018-08-11T01:08:59.697Z,0.00
2018-08-11T01:09:59.686Z,0.00
2018-08-11T01:10:59.753Z,0.00
2018-08-11T01:11:59.690Z,0.00
2018-08-11T01:12:59.701Z,0.00
2018-08-11T01:14:01.296Z,0.00
2018-08-11T01:14:59.716Z,0.00
2018-08-11T01:15:59.721Z,0.00
2018-08-11T01:16:59.710Z,0.00
2018-08-11T01:17:59.717Z,0.00
2018-08-11T01:18:59.719Z,0.00
2018-08-11T01:19:59.713Z,0.00
2018-08-11T01:20:59.723Z,0.00
2018-08-11T01:21:59.724Z,0.00
2018-08-11T01:22:59.724Z,0.00
2018-08-11T01:23:59.719Z,0.00
2018-08-11T01:24:59.732Z,0.00
2018-08-11T01:25:59.726Z,0.00
2018-08-11T01:26:59.728Z,0.00
2018-08-11T01:27:59.743Z,0.00
2018-08-11T01:28:59.742Z,0.00
2018-08-11T01:29:59.776Z,0.00
2018-08-11T01:30:59.749Z,0.00
2018-08-11T01:31:59.767Z,0.00
2018-08-11T01:32:59.753Z,0.00
2018-08-11T01:33:59.749Z,0.00
2018-08-11T01:34:59.761Z,0.00
2018-08-11T01:35:59.764Z,0.00
2018-08-11T01:36:59.763Z,0.00
2018-08-11T01:37:59.776Z,0.00
2018-08-11T01:38:59.782Z,0.00
2018-08-11T01:40:00.744Z,0.00
2018-08-11T01:40:59.776Z,0.00
2018-08-11T01:41:59.771Z,0.00
2018-08-11T01:42:59.780Z,0.00
2018-08-11T01:43:59.808Z,0.00
2018-08-11T01:44:59.789Z,0.00
2018-08-11T01:45:59.785Z,0.00
2018-08-11T01:46:59.781Z,0.00
2018-08-11T01:47:59.792Z,0.00
2018-08-11T01:49:01.331Z,0.00
2018-08-11T01:49:59.793Z,0.00
2018-08-11T01:50:59.801Z,0.00
2018-08-11T01:51:59.800Z,0.00
2018-08-11T01:52:59.831Z,0.00
2018-08-11T01:53:59.816Z,0.00
2018-08-11T01:54:59.823Z,0.00
2018-08-11T01:55:59.816Z,0.00
2018-08-11T01:56:59.807Z,0.00
2018-08-11T01:57:59.878Z,0.00
2018-08-11T01:58:59.809Z,0.00
2018-08-11T01:59:59.829Z,0.00
2018-08-11T02:00:59.821Z,0.00
2018-08-11T02:01:59.827Z,0.00
2018-08-11T02:02:59.820Z,0.00
2018-08-11T02:03:59.829Z,0.00
2018-08-11T02:04:59.843Z,0.00
2018-08-11T02:05:59.847Z,0.00
2018-08-11T02:06:59.831Z,0.00
2018-08-11T02:07:59.853Z,0.00
2018-08-11T02:08:59.848Z,0.00
2018-08-11T02:09:59.850Z,0.00
2018-08-11T02:10:59.911Z,0.00
2018-08-11T02:11:59.851Z,0.00
2018-08-11T02:12:59.853Z,0.00
2018-08-11T02:14:02.818Z,0.00
2018-08-11T02:14:59.864Z,0.00
2018-08-11T02:15:59.860Z,0.00
2018-08-11T02:16:59.867Z,0.00
2018-08-11T02:17:59.892Z,0.00
2018-08-11T02:18:59.885Z,0.00
2018-08-11T02:19:59.876Z,0.00
2018-08-11T02:20:59.874Z,0.00
2018-08-11T02:21:59.874Z,0.00
2018-08-11T02:22:59.887Z,0.00
2018-08-11T02:23:59.924Z,0.00
2018-08-11T02:24:59.884Z,0.00
2018-08-11T02:25:59.877Z,0.00
2018-08-11T02:26:59.885Z,0.00
2018-08-11T02:27:59.900Z,0.00
2018-08-11T02:28:59.922Z,0.00
2018-08-11T02:29:59.897Z,0.00
2018-08-11T02:30:59.939Z,0.00
2018-08-11T02:31:59.908Z,0.00
2018-08-11T02:32:59.912Z,0.00
2018-08-11T02:33:59.907Z,0.00
2018-08-11T02:34:59.918Z,0.00
2018-08-11T02:35:59.916Z,0.00
2018-08-11T02:36:59.973Z,0.00
2018-08-11T02:37:59.923Z,0.00
2018-08-11T02:38:59.920Z,0.00
2018-08-11T02:39:59.928Z,0.00
2018-08-11T02:40:59.925Z,0.00
2018-08-11T02:41:59.929Z,0.00
2018-08-11T02:42:59.929Z,0.00
2018-08-11T02:43:59.926Z,0.00
2018-08-11T02:44:59.939Z,0.00
2018-08-11T02:45:59.939Z,0.00
2018-08-11T02:46:59.931Z,0.00
2018-08-11T02:47:59.939Z,0.00
2018-08-11T02:48:59.932Z,0.00
2018-08-11T02:50:01.831Z,0.00
2018-08-11T02:51:00.015Z,0.00
2018-08-11T02:51:59.945Z,0.00
2018-08-11T02:52:59.964Z,0.00
2018-08-11T02:53:59.944Z,0.00
2018-08-11T02:54:59.953Z,0.00
2018-08-11T02:55:59.971Z,0.00
2018-08-11T02:56:59.967Z,0.00
2018-08-11T02:57:59.961Z,0.00
2018-08-11T02:58:59.967Z,0.00
2018-08-11T02:59:59.972Z,0.00
2018-08-11T03:00:59.971Z,0.00
2018-08-11T03:01:59.987Z,0.00
2018-08-11T03:02:59.979Z,0.00
2018-08-11T03:03:59.980Z,0.00
2018-08-11T03:04:59.975Z,0.00
2018-08-11T03:05:59.979Z,0.00
2018-08-11T03:06:59.996Z,0.00
2018-08-11T03:07:59.983Z,0.00
2018-08-11T03:08:59.999Z,0.00
2018-08-11T03:09:59.984Z,0.00
2018-08-11T03:10:59.994Z,0.00
2018-08-11T03:12:00.005Z,0.00
2018-08-11T03:13:00.028Z,0.00
2018-08-11T03:14:00.111Z,0.00
2018-08-11T03:15:00.012Z,0.00
2018-08-11T03:16:00.034Z,0.00
2018-08-11T03:17:00.015Z,0.00
2018-08-11T03:18:00.018Z,0.00
2018-08-11T03:19:00.007Z,0.00
2018-08-11T03:20:00.020Z,0.00
2018-08-11T03:21:00.020Z,0.00
2018-08-11T03:22:00.029Z,0.00
2018-08-11T03:23:00.029Z,0.00
2018-08-11T03:24:00.034Z,0.00
2018-08-11T03:25:00.032Z,0.00
2018-08-11T03:26:00.031Z,0.00
2018-08-11T03:47:03.602Z,12.00
2018-08-11T03:48:01.418Z,12.00
2018-08-11T03:49:01.572Z,16.00
2018-08-11T03:50:21.422Z,20.00
2018-08-11T03:51:01.052Z,24.00
2018-08-11T03:52:00.452Z,24.00
2018-08-11T03:53:00.486Z,28.00
2018-08-11T03:54:00.459Z,32.00
2018-08-11T03:55:00.524Z,36.00
2018-08-11T03:56:00.432Z,44.00
2018-08-11T03:57:00.442Z,44.00
2018-08-11T03:58:00.432Z,52.00
2018-08-11T03:59:00.468Z,56.00
2018-08-11T04:00:00.408Z,64.00
2018-08-11T04:01:00.481Z,72.00
2018-08-11T04:02:00.443Z,76.00
2018-08-11T04:03:01.063Z,84.00
2018-08-11T04:04:00.471Z,88.00
2018-08-11T04:05:00.442Z,100.00
2018-08-11T04:06:00.453Z,104.00
2018-08-11T04:07:00.436Z,116.00
2018-08-11T04:08:00.437Z,124.00
2018-08-11T04:09:00.472Z,136.00
2018-08-11T04:10:00.426Z,140.00
2018-08-11T04:11:00.452Z,152.00
2018-08-11T04:12:00.456Z,164.00
2018-08-11T04:13:00.440Z,180.00
2018-08-11T04:14:00.452Z,192.00
2018-08-11T04:15:00.469Z,196.00
2018-08-11T04:16:00.463Z,196.00
2018-08-11T04:17:00.532Z,216.00
2018-08-11T04:18:00.479Z,200.00
2018-08-11T04:19:00.512Z,232.00
2018-08-11T04:20:00.483Z,248.00
2018-08-11T04:21:00.494Z,264.00
2018-08-11T04:22:00.507Z,268.00
2018-08-11T04:23:00.532Z,296.00
2018-08-11T04:24:00.506Z,304.00
2018-08-11T04:25:00.807Z,340.00
2018-08-11T04:26:01.069Z,348.00
2018-08-11T04:27:00.503Z,356.00
2018-08-11T04:28:00.536Z,388.00
2018-08-11T04:29:00.520Z,384.00
2018-08-11T04:30:00.519Z,432.00
2018-08-11T04:31:00.523Z,528.00
2018-08-11T04:32:00.519Z,524.00
2018-08-11T04:33:00.507Z,568.00
2018-08-11T04:34:00.532Z,544.00
2018-08-11T04:35:00.507Z,548.00
2018-08-11T04:36:00.502Z,600.00
2018-08-11T04:37:00.494Z,636.00
2018-08-11T04:38:00.487Z,680.00
2018-08-11T04:39:00.538Z,712.00
2018-08-11T04:40:00.539Z,788.00
2018-08-11T04:41:00.501Z,792.00
2018-08-11T04:42:00.610Z,812.00
2018-08-11T04:43:00.577Z,824.00
2018-08-11T04:44:00.659Z,852.00
2018-08-11T04:45:00.528Z,884.00
2018-08-11T04:46:00.543Z,912.00
2018-08-11T04:47:00.584Z,1156.00
2018-08-11T04:48:00.605Z,956.00
2018-08-11T04:49:00.568Z,988.00
2018-08-11T04:50:00.595Z,1004.00
2018-08-11T04:51:00.588Z,1100.00
2018-08-11T04:52:00.606Z,1140.00
2018-08-11T04:53:00.552Z,1160.00
2018-08-11T04:54:00.539Z,1192.00
2018-08-11T04:55:00.583Z,1184.00
2018-08-11T04:56:00.543Z,1148.00
2018-08-11T04:57:00.546Z,1576.00
2018-08-11T04:58:00.591Z,1320.00
2018-08-11T04:59:00.597Z,1124.00
2018-08-11T05:00:00.575Z,1292.00
2018-08-11T05:01:00.543Z,1080.00
2018-08-11T05:02:00.621Z,1096.00
2018-08-11T05:03:00.591Z,1524.00
2018-08-11T05:04:00.581Z,1352.00
2018-08-11T05:05:00.658Z,1224.00
2018-08-11T05:06:00.601Z,1256.00
2018-08-11T05:07:00.658Z,1152.00
2018-08-11T05:08:00.609Z,1096.00
2018-08-11T05:09:00.567Z,1200.00
2018-08-11T05:10:00.600Z,1248.00
2018-08-11T05:11:00.592Z,1368.00
2018-08-11T05:12:00.617Z,1120.00
2018-08-11T05:13:00.609Z,1124.00
2018-08-11T05:14:00.584Z,1188.00
2018-08-11T05:15:00.628Z,1204.00
2018-08-11T05:16:00.605Z,1480.00
2018-08-11T05:17:00.663Z,1372.00
2018-08-11T05:18:00.647Z,1568.00
2018-08-11T05:19:00.632Z,1360.00
2018-08-11T05:20:01.152Z,1548.00
2018-08-11T05:21:00.671Z,1400.00
2018-08-11T05:22:00.623Z,1448.00
2018-08-11T05:23:00.651Z,1428.00
2018-08-11T05:24:00.673Z,1356.00
2018-08-11T05:25:00.634Z,1456.00
2018-08-11T05:26:00.669Z,1372.00
2018-08-11T05:27:00.658Z,1076.00
2018-08-11T05:28:00.652Z,908.00
2018-08-11T05:29:00.613Z,1132.00
2018-08-11T05:30:00.628Z,1280.00
2018-08-11T05:31:00.645Z,1304.00
2018-08-11T05:32:00.674Z,1016.00
2018-08-11T05:33:00.646Z,1052.00
2018-08-11T05:34:00.699Z,884.00
2018-08-11T05:35:00.677Z,1068.00
2018-08-11T05:36:00.658Z,840.00
2018-08-11T05:37:00.687Z,724.00
2018-08-11T05:38:00.645Z,896.00
2018-08-11T05:39:00.695Z,828.00
2018-08-11T05:40:00.701Z,1308.00
2018-08-11T05:41:00.699Z,1640.00
2018-08-11T05:42:00.657Z,1936.00
2018-08-11T05:43:00.717Z,1960.00
2018-08-11T05:44:00.665Z,2616.00
2018-08-11T05:45:00.652Z,2968.00
2018-08-11T05:46:00.687Z,4400.00
2018-08-11T05:47:00.692Z,2552.00
2018-08-11T05:48:00.673Z,3628.00
2018-08-11T05:49:00.668Z,1948.00
2018-08-11T05:50:00.718Z,1516.00
2018-08-11T05:51:00.770Z,1164.00
2018-08-11T05:52:00.716Z,1376.00
2018-08-11T05:53:00.710Z,1620.00
2018-08-11T05:54:00.735Z,1688.00
2018-08-11T05:55:00.714Z,1384.00
2018-08-11T05:56:00.914Z,1396.00
2018-08-11T05:57:00.712Z,1536.00
2018-08-11T05:58:00.729Z,1252.00
2018-08-11T05:59:00.753Z,1696.00
2018-08-11T06:00:00.688Z,1352.00
2018-08-11T06:01:00.767Z,1244.00
2018-08-11T06:02:00.741Z,1552.00
2018-08-11T06:03:00.739Z,1500.00
2018-08-11T06:04:00.750Z,1744.00
2018-08-11T06:05:00.755Z,1680.00
2018-08-11T06:06:00.740Z,1952.00
2018-08-11T06:07:00.736Z,2432.00
2018-08-11T06:08:00.796Z,2284.00
2018-08-11T06:09:00.744Z,2156.00
2018-08-11T06:10:00.746Z,2624.00
2018-08-11T06:11:00.749Z,2080.00
2018-08-11T06:12:00.791Z,3016.00
2018-08-11T06:13:00.817Z,2096.00
2018-08-11T06:14:01.614Z,1880.00
2018-08-11T06:15:00.780Z,1872.00
2018-08-11T06:16:00.834Z,3004.00
2018-08-11T06:17:00.783Z,4500.00
2018-08-11T06:18:00.765Z,6144.00
2018-08-11T06:19:00.739Z,9492.00
2018-08-11T06:20:00.798Z,8700.00
2018-08-11T06:21:00.769Z,11080.00
2018-08-11T06:22:00.797Z,6524.00
2018-08-11T06:23:00.841Z,6356.00
2018-08-11T06:24:00.852Z,9080.00
2018-08-11T06:25:00.884Z,11484.00
2018-08-11T06:26:01.110Z,8708.00
2018-08-11T06:27:01.111Z,5608.00
2018-08-11T06:28:00.827Z,5584.00
2018-08-11T06:29:00.897Z,4468.00
2018-08-11T06:30:00.779Z,3996.00
2018-08-11T06:31:00.808Z,3604.00
2018-08-11T06:32:00.813Z,5180.00
2018-08-11T06:33:00.788Z,5612.00
2018-08-11T06:34:00.859Z,6648.00
2018-08-11T06:35:00.838Z,12488.00
2018-08-11T06:36:00.800Z,10412.00
2018-08-11T06:37:00.852Z,7316.00
2018-08-11T06:38:00.813Z,13352.00
2018-08-11T06:39:00.894Z,10532.00
2018-08-11T06:40:00.892Z,12912.00
2018-08-11T06:41:00.993Z,12524.00
2018-08-11T06:42:00.986Z,11252.00
2018-08-11T06:43:00.885Z,11980.00
2018-08-11T06:44:00.840Z,7160.00
2018-08-11T06:45:00.874Z,4524.00
2018-08-11T06:46:00.866Z,5976.00
2018-08-11T06:47:00.876Z,4248.00
2018-08-11T06:48:00.870Z,7216.00
2018-08-11T06:49:00.834Z,6096.00
2018-08-11T06:50:00.873Z,9176.00
2018-08-11T06:51:00.886Z,12464.00
2018-08-11T06:52:00.850Z,8108.00
2018-08-11T06:53:00.847Z,7656.00
2018-08-11T06:54:00.842Z,11648.00
2018-08-11T06:55:00.884Z,12608.00
2018-08-11T06:56:00.838Z,12520.00
2018-08-11T06:57:00.886Z,9256.00
2018-08-11T06:58:00.891Z,12608.00
2018-08-11T06:59:00.920Z,12268.00
2018-08-11T07:00:00.956Z,12392.00
2018-08-11T07:01:00.933Z,14244.00
2018-08-11T07:02:00.973Z,16576.00
2018-08-11T07:03:00.891Z,9660.00
2018-08-11T07:04:00.966Z,14436.00
2018-08-11T07:05:01.632Z,13772.00
2018-08-11T07:06:00.931Z,7992.00
2018-08-11T07:07:00.920Z,6832.00
2018-08-11T07:08:00.955Z,14828.00
2018-08-11T07:09:00.938Z,14428.00
2018-08-11T07:10:00.919Z,12628.00
2018-08-11T07:11:00.943Z,8988.00
2018-08-11T07:12:00.934Z,7836.00
2018-08-11T07:13:00.953Z,7444.00
2018-08-11T07:14:00.998Z,8468.00
2018-08-11T07:15:00.972Z,11412.00
2018-08-11T07:16:00.974Z,6640.00
2018-08-11T07:17:00.957Z,7472.00
2018-08-11T07:18:01.023Z,10288.00
2018-08-11T07:19:00.978Z,7404.00
2018-08-11T07:20:01.064Z,14336.00
2018-08-11T07:21:01.019Z,17824.00
2018-08-11T07:22:01.071Z,5336.00
2018-08-11T07:23:01.096Z,6640.00
2018-08-11T07:24:01.170Z,15628.00
2018-08-11T07:25:01.080Z,10996.00
2018-08-11T07:26:01.222Z,15068.00
2018-08-11T07:27:01.037Z,14568.00
2018-08-11T07:28:01.042Z,14776.00
2018-08-11T07:29:01.060Z,14972.00
2018-08-11T07:30:01.057Z,15276.00
2018-08-11T07:31:01.049Z,15196.00
2018-08-11T07:32:01.057Z,15404.00
2018-08-11T07:33:01.641Z,15476.00
2018-08-11T07:34:01.081Z,16040.00
2018-08-11T07:35:01.106Z,15644.00
2018-08-11T07:36:01.251Z,16080.00
2018-08-11T07:37:01.097Z,15732.00
2018-08-11T07:38:01.160Z,17024.00
2018-08-11T07:39:01.088Z,17344.00
2018-08-11T07:40:01.178Z,16896.00
2018-08-11T07:41:01.143Z,18016.00
2018-08-11T07:42:01.139Z,17632.00
2018-08-11T07:43:01.132Z,17536.00
2018-08-11T07:44:01.186Z,18208.00
2018-08-11T07:45:01.138Z,18336.00
2018-08-11T07:46:01.251Z,19840.00
2018-08-11T07:47:01.222Z,7928.00
2018-08-11T07:48:01.215Z,20928.00
2018-08-11T07:49:01.205Z,21568.00
2018-08-11T07:50:01.176Z,25536.00
2018-08-11T07:51:01.215Z,11456.00
2018-08-11T07:52:01.210Z,27072.00
2018-08-11T07:53:01.242Z,23872.00
2018-08-11T07:54:01.276Z,22624.00
2018-08-11T07:55:01.257Z,23104.00
2018-08-11T07:56:01.377Z,24000.00
2018-08-11T07:57:01.423Z,25568.00
2018-08-11T07:58:01.297Z,27520.00
2018-08-11T07:59:01.303Z,29984.00
2018-08-11T08:00:01.347Z,30688.00
2018-08-11T08:01:01.289Z,33312.00
2018-08-11T08:02:01.354Z,35744.00
2018-08-11T08:03:01.325Z,37312.00
2018-08-11T08:04:01.354Z,43904.00
2018-08-11T08:05:01.366Z,47648.00
2018-08-11T08:06:01.400Z,57664.00
2018-08-11T08:07:01.360Z,74784.00
2018-08-11T08:08:01.410Z,84608.00
2018-08-11T08:09:01.483Z,53504.00
2018-08-11T08:10:01.435Z,105088.00
2018-08-11T08:11:01.582Z,115904.00
2018-08-11T08:12:01.465Z,118048.00
2018-08-11T08:13:01.466Z,40672.00
2018-08-11T08:14:01.458Z,132128.00
2018-08-11T08:15:01.517Z,117504.00
2018-08-11T08:16:01.499Z,99584.00
2018-08-11T08:17:01.621Z,88256.00
2018-08-11T08:18:01.533Z,6152.00
2018-08-11T08:19:01.493Z,75488.00
2018-08-11T08:20:01.578Z,53280.00
2018-08-11T08:21:01.649Z,8376.00
2018-08-11T08:22:01.530Z,12264.00
2018-08-11T08:23:01.552Z,11796.00
2018-08-11T08:24:01.597Z,64160.00
2018-08-11T08:25:01.602Z,62080.00
2018-08-11T08:26:01.678Z,8568.00
2018-08-11T08:27:01.655Z,8404.00
2018-08-11T08:28:01.669Z,5960.00
2018-08-11T08:29:01.621Z,61600.00
2018-08-11T08:30:01.620Z,7980.00
2018-08-11T08:31:01.678Z,6664.00
2018-08-11T08:32:01.683Z,8600.00
2018-08-11T08:33:01.701Z,69600.00
2018-08-11T08:34:01.726Z,73248.00
2018-08-11T08:35:01.699Z,8700.00
2018-08-11T08:36:01.710Z,6200.00
2018-08-11T08:37:01.706Z,51296.00
2018-08-11T08:38:01.749Z,55840.00
2018-08-11T08:39:01.749Z,20672.00
2018-08-11T08:40:01.720Z,22816.00
2018-08-11T08:41:01.763Z,60384.00
2018-08-11T08:42:01.782Z,26496.00
2018-08-11T08:43:01.785Z,21600.00
2018-08-11T08:44:01.806Z,22880.00
2018-08-11T08:45:01.767Z,54400.00
2018-08-11T08:46:01.810Z,36512.00
2018-08-11T08:47:01.820Z,16832.00
2018-08-11T08:48:01.811Z,14676.00
2018-08-11T08:49:01.884Z,7564.00
2018-08-11T08:50:01.801Z,5360.00
2018-08-11T08:51:01.840Z,6536.00
2018-08-11T08:52:01.831Z,7152.00
2018-08-11T08:53:01.865Z,6352.00
2018-08-11T08:54:01.853Z,6800.00
2018-08-11T08:55:01.875Z,10820.00
2018-08-11T08:56:01.881Z,53888.00
2018-08-11T08:57:01.915Z,55616.00
2018-08-11T08:58:01.935Z,54176.00
2018-08-11T08:59:01.928Z,55520.00
2018-08-11T09:00:01.932Z,56448.00
2018-08-11T09:01:01.968Z,57472.00
2018-08-11T09:02:01.988Z,59040.00
2018-08-11T09:03:01.931Z,60192.00
2018-08-11T09:04:01.954Z,59680.00
2018-08-11T09:05:01.955Z,44000.00
2018-08-11T09:06:02.020Z,73728.00
2018-08-11T09:07:02.014Z,78528.00
2018-08-11T09:08:02.039Z,55712.00
2018-08-11T09:09:02.036Z,71104.00
2018-08-11T09:10:02.064Z,75520.00
2018-08-11T09:11:02.020Z,64512.00
2018-08-11T09:12:02.078Z,11012.00
2018-08-11T09:13:02.082Z,80640.00
2018-08-11T09:14:02.127Z,73728.00
2018-08-11T09:15:02.769Z,46336.00
2018-08-11T09:16:02.095Z,59520.00
2018-08-11T09:17:02.110Z,50656.00
2018-08-11T09:18:02.420Z,9580.00
2018-08-11T09:19:02.143Z,55520.00
2018-08-11T09:20:02.131Z,7456.00
2018-08-11T09:21:02.253Z,54784.00
2018-08-11T09:22:02.157Z,54592.00
2018-08-11T09:23:02.260Z,56928.00
2018-08-11T09:24:02.717Z,57056.00
2018-08-11T09:25:02.206Z,31264.00
2018-08-11T09:26:02.220Z,9452.00
2018-08-11T09:27:02.235Z,52672.00
2018-08-11T09:28:02.296Z,50752.00
2018-08-11T09:29:02.743Z,52640.00
2018-08-11T09:30:02.229Z,51232.00
2018-08-11T09:31:02.298Z,51680.00
2018-08-11T09:32:02.312Z,54112.00
2018-08-11T09:33:02.319Z,50976.00
2018-08-11T09:34:02.340Z,49152.00
2018-08-11T09:35:02.343Z,50816.00
2018-08-11T09:36:02.393Z,19168.00
2018-08-11T09:37:02.366Z,10824.00
2018-08-11T09:38:02.413Z,56064.00
2018-08-11T09:39:02.359Z,51040.00
2018-08-11T09:40:02.408Z,48832.00
2018-08-11T09:41:02.413Z,49088.00
2018-08-11T09:42:02.416Z,48608.00
2018-08-11T09:43:02.419Z,48288.00
2018-08-11T09:44:02.508Z,50080.00
2018-08-11T09:45:02.586Z,50336.00
2018-08-11T09:46:02.914Z,53504.00
2018-08-11T09:47:02.477Z,56992.00
2018-08-11T09:48:02.643Z,61696.00
2018-08-11T09:49:02.747Z,69600.00
2018-08-11T09:50:02.517Z,66784.00
2018-08-11T09:51:02.569Z,59936.00
2018-08-11T09:52:02.571Z,66272.00
2018-08-11T09:53:02.591Z,74400.00
2018-08-11T09:54:02.645Z,35552.00
2018-08-11T09:55:02.605Z,25184.00
2018-08-11T09:56:02.616Z,23264.00
2018-08-11T09:57:02.666Z,72352.00
2018-08-11T09:58:02.650Z,19968.00
2018-08-11T09:59:02.679Z,70688.00
2018-08-11T10:00:02.744Z,69472.00
2018-08-11T10:01:02.749Z,66176.00
2018-08-11T10:02:02.768Z,65536.00
2018-08-11T10:03:02.746Z,65600.00
2018-08-11T10:04:02.797Z,60640.00
2018-08-11T10:05:02.803Z,60352.00
2018-08-11T10:06:02.810Z,64064.00
2018-08-11T10:07:02.871Z,64928.00
2018-08-11T10:08:02.857Z,72160.00
2018-08-11T10:09:02.874Z,83072.00
2018-08-11T10:10:02.882Z,91520.00
2018-08-11T10:11:02.896Z,88576.00
2018-08-11T10:12:02.918Z,79776.00
2018-08-11T10:13:02.935Z,8936.00
2018-08-11T10:14:02.922Z,71360.00
2018-08-11T10:15:02.958Z,94080.00
2018-08-11T10:16:02.975Z,102432.00
2018-08-11T10:17:02.961Z,101632.00
2018-08-11T10:18:02.963Z,37184.00
2018-08-11T10:19:03.025Z,8360.00
2018-08-11T10:20:03.036Z,11876.00
2018-08-11T10:21:03.051Z,6512.00
2018-08-11T10:22:03.028Z,4508.00
2018-08-11T10:23:03.056Z,5400.00
2018-08-11T10:24:03.079Z,93152.00
2018-08-11T10:25:03.133Z,97856.00
2018-08-11T10:26:03.115Z,99168.00
2018-08-11T10:27:03.132Z,105792.00
2018-08-11T10:28:03.120Z,102432.00
2018-08-11T10:29:03.148Z,103584.00
2018-08-11T10:30:03.159Z,104704.00
2018-08-11T10:31:03.177Z,104512.00
2018-08-11T10:32:03.201Z,24608.00
2018-08-11T10:33:03.190Z,71552.00
2018-08-11T10:34:03.340Z,96000.00
2018-08-11T10:35:03.306Z,9428.00
2018-08-11T10:36:03.277Z,9772.00
2018-08-11T10:37:03.331Z,34144.00
2018-08-11T10:38:03.280Z,92320.00
2018-08-11T10:39:03.275Z,88352.00
2018-08-11T10:40:03.324Z,9648.00
2018-08-11T10:41:03.337Z,62528.00
2018-08-11T10:42:03.337Z,16296.00
2018-08-11T10:43:03.358Z,6680.00
2018-08-11T10:44:03.367Z,5068.00
2018-08-11T10:45:03.402Z,6304.00
2018-08-11T10:46:03.372Z,8236.00
2018-08-11T10:47:03.402Z,8156.00
2018-08-11T10:48:03.428Z,7980.00
2018-08-11T10:49:03.479Z,12548.00
2018-08-11T10:50:03.431Z,75680.00
2018-08-11T10:51:03.439Z,13324.00
2018-08-11T10:52:03.472Z,9624.00
2018-08-11T10:53:03.510Z,7336.00
2018-08-11T10:54:03.489Z,5668.00
2018-08-11T10:55:03.519Z,5020.00
2018-08-11T10:56:03.645Z,3820.00
2018-08-11T10:57:03.564Z,2908.00
2018-08-11T10:58:03.570Z,2852.00
2018-08-11T10:59:03.566Z,2860.00
2018-08-11T11:00:03.561Z,2852.00
2018-08-11T11:01:03.567Z,2928.00
2018-08-11T11:02:03.594Z,3192.00
2018-08-11T11:03:03.597Z,3320.00
2018-08-11T11:04:03.677Z,3680.00
2018-08-11T11:05:03.635Z,4272.00
2018-08-11T11:06:03.609Z,6104.00
2018-08-11T11:07:03.633Z,6784.00
2018-08-11T11:08:03.635Z,7472.00
2018-08-11T11:09:03.754Z,8080.00
2018-08-11T11:10:03.641Z,8692.00
2018-08-11T11:11:03.734Z,8984.00
2018-08-11T11:12:03.690Z,9728.00
2018-08-11T11:13:03.707Z,11768.00
2018-08-11T11:14:03.693Z,13092.00
2018-08-11T11:15:03.672Z,13256.00
2018-08-11T11:16:03.718Z,12780.00
2018-08-11T11:17:03.703Z,13176.00
2018-08-11T11:18:03.695Z,14296.00
2018-08-11T11:19:03.706Z,12060.00
2018-08-11T11:20:03.728Z,10692.00
2018-08-11T11:21:03.774Z,10964.00
2018-08-11T11:22:03.785Z,12344.00
2018-08-11T11:23:03.735Z,10700.00
2018-08-11T11:24:03.774Z,11616.00
2018-08-11T11:25:03.837Z,10264.00
2018-08-11T11:26:03.785Z,9872.00
2018-08-11T11:27:03.842Z,10076.00
2018-08-11T11:28:03.808Z,9324.00
2018-08-11T11:29:03.765Z,8108.00
2018-08-11T11:30:03.795Z,8164.00
2018-08-11T11:31:03.794Z,8084.00
2018-08-11T11:32:03.819Z,7752.00
2018-08-11T11:33:03.805Z,8088.00
2018-08-11T11:34:03.839Z,8744.00
2018-08-11T11:35:03.940Z,7824.00
2018-08-11T11:36:03.917Z,7240.00
2018-08-11T11:37:03.952Z,7132.00
2018-08-11T11:38:03.888Z,7628.00
2018-08-11T11:39:03.854Z,10728.00
2018-08-11T11:40:03.874Z,13112.00
2018-08-11T11:41:03.871Z,12556.00
2018-08-11T11:42:03.903Z,11356.00
2018-08-11T11:43:03.984Z,10088.00
2018-08-11T11:44:03.897Z,9364.00
2018-08-11T11:45:04.208Z,9344.00
2018-08-11T11:46:03.914Z,10160.00
2018-08-11T11:47:04.053Z,10648.00
2018-08-11T11:48:03.939Z,9844.00
2018-08-11T11:49:04.040Z,9772.00
2018-08-11T11:50:03.977Z,10024.00
2018-08-11T11:51:03.930Z,10756.00
2018-08-11T11:52:04.022Z,10240.00
2018-08-11T11:53:03.964Z,10256.00
2018-08-11T11:54:03.951Z,11184.00
2018-08-11T11:55:03.968Z,9156.00
2018-08-11T11:56:03.977Z,8236.00
2018-08-11T11:57:03.976Z,7608.00
2018-08-11T11:58:04.007Z,7276.00
2018-08-11T11:59:03.983Z,7564.00
2018-08-11T12:00:04.231Z,8128.00
2018-08-11T12:01:03.996Z,8940.00
2018-08-11T12:02:04.055Z,9532.00
2018-08-11T12:03:04.006Z,11204.00
2018-08-11T12:04:04.020Z,11936.00
2018-08-11T12:05:04.070Z,12336.00
2018-08-11T12:06:04.057Z,12564.00
2018-08-11T12:07:04.040Z,12456.00
2018-08-11T12:08:04.027Z,13080.00
2018-08-11T12:09:04.176Z,12584.00
2018-08-11T12:10:04.820Z,12016.00
2018-08-11T12:11:04.107Z,12480.00
2018-08-11T12:12:04.111Z,11988.00
2018-08-11T12:13:04.114Z,12068.00
2018-08-11T12:14:04.119Z,11836.00
2018-08-11T12:15:04.121Z,10944.00
2018-08-11T12:16:04.123Z,10580.00
2018-08-11T12:17:04.150Z,10808.00
2018-08-11T12:18:04.141Z,11340.00
2018-08-11T12:19:04.171Z,10956.00
2018-08-11T12:20:04.142Z,11132.00
2018-08-11T12:21:04.175Z,11176.00
2018-08-11T12:22:04.165Z,11488.00
2018-08-11T12:23:04.173Z,12000.00
2018-08-11T12:24:04.166Z,10836.00
2018-08-11T12:25:04.208Z,9632.00
2018-08-11T12:26:04.188Z,9144.00
2018-08-11T12:27:04.150Z,9884.00
2018-08-11T12:28:04.266Z,9820.00
2018-08-11T12:29:04.169Z,10656.00
2018-08-11T12:30:04.268Z,9904.00
2018-08-11T12:31:04.227Z,9532.00
2018-08-11T12:32:04.232Z,8528.00
2018-08-11T12:33:04.210Z,9116.00
2018-08-11T12:34:04.243Z,9384.00
2018-08-11T12:35:04.280Z,8780.00
2018-08-11T12:36:04.238Z,8048.00
2018-08-11T12:37:04.256Z,8188.00
2018-08-11T12:38:04.433Z,8340.00
2018-08-11T12:39:04.259Z,9268.00
2018-08-11T12:40:04.344Z,9680.00